Perkins, GA (30822)

1:52 PM EDT on June 02, 2015 (GMT -0400)
Plantation | | Change Station
CLOSE
Current Station
Airport
Location: Sylvania,
Elevation: 187 ft
Nearby Weather Stations

Elev 187 ft 32.65 °N, 81.60 °W | Updated 17 minutes ago

Partly Cloudy
Partly Cloudy
85 °F
Feels Like 89 °F
N
4
Wind Variable Wind from SW

Today
High -- | Low -- °F
--% Chance of Precip.
Yesterday
High -- | Low -- °F
Precip. -- in
6:20 AM 8:31 PM
Full, 100% visible
Pressure 30.01 in
Visibility 10.0 miles
Clouds Scattered Clouds 3100 ft
Mostly Cloudy 11000 ft
Heat Index 89 °F
Dew Point 70 °F
Humidity 62%
Rainfall 0.00 in
Snow Depth Not available.
UV 7 out of 12
Pollen 1.10 out of 12
Air Quality Not available.
Flu Activity Sporadic
METAR KJYL 021735Z AUTO 22003KT 10SM SCT031 BKN110 29/21 A3001 RMK AO2 T02930214

More Conditions Fewer Conditions

Pressure 30.01 in
Visibility 10.0 miles
Clouds Scattered Clouds 3100 ft
Mostly Cloudy 11000 ft
Heat Index 89 °F
Dew Point 70 °F
Humidity 62%
Rainfall 0.00 in
Snow Depth Not available.
UV 7 out of 12
Pollen 1.10 out of 12
Air Quality Not available.
Flu Activity Sporadic
METAR KJYL 021735Z AUTO 22003KT 10SM SCT031 BKN110 29/21 A3001 RMK AO2 T02930214

More Conditions Fewer Conditions

10-Day Weather Forecast

×

Almanac

Astronomy

Jun. 02, 2015 Rise Set
Actual Time
Civil Twilight
Nautical Twilight
Astronomical Twilight
Moon
Length of Visible Light
Length of Day
Tomorrow will be .
, % of the Moon is Illuminated

Today's Extremes

State Highs State Lows

Community

WunderPhotos

Upload Photos

1,825,988 photos uploaded!

WunderBlogs® & News

Nearby

Air Quality

  Air Quality AQ Index Pollutant
Not available.

Snow Depth

Station Depth Elevation

Earthquake Activity

City Distance Mag. Time & Date
Minimum magnitude displayed is 2.5.

Coastal Water Temperatures

Place Temperature

Stations

Nearby Weather Stations

Station Location Temp. Windchill Dew Point Humidity Wind Precip. Elev Updated Type